Smithfield - 24 Hour Table
Date & TimeSolar
Radiation
(W/m²)
Wind
Speed
(mph)
Wind
Direction
(degrees)
Air
Temperature
(°F)
Relative
Humidity
(%)
Precipitation
(inches)
2020/04/09 16:00 626 4.3 255 68.1 21 0.00
2020/04/09 15:00 689 4.7 248 67.0 32 0.00
2020/04/09 14:00 856 4.0 272 65.2 25 0.00
2020/04/09 13:00 886 4.1 278 63.1 21 0.00
2020/04/09 12:00 856 3.7 290 59.8 29 0.00
2020/04/09 11:00 770 3.6 284 56.0 26 0.00
2020/04/09 10:00 631 3.6 312 51.7 30 0.00
2020/04/09 09:00 452 2.9 192 47.0 43 0.00
2020/04/09 08:00 255 2.3 157 42.0 52 0.00
2020/04/09 07:00 42 4.4 34 39.2 59 0.00
2020/04/09 06:00 1 4.1 67 38.1 60 0.00
2020/04/09 05:00 0 3.4 58 39.4 57 0.00
2020/04/09 04:00 0 3.6 53 40.0 54 0.00
2020/04/09 03:00 0 3.8 59 41.3 56 0.00
2020/04/09 02:00 0 3.2 26 43.6 56 0.00
2020/04/09 01:00 0 3.8 68 44.8 52 0.00
2020/04/09 00:00 0 2.7 74 46.8 49 0.00
2020/04/08 23:00 0 3.3 73 47.5 50 0.00
2020/04/08 22:00 0 2.8 103 50.0 54 0.00
2020/04/08 21:00 0 4.3 41 52.7 42 0.00
2020/04/08 20:00 1 4.8 49 55.2 44 0.00
2020/04/08 19:00 62 5.8 14 60.3 34 0.00
2020/04/08 18:00 262 7.7 357 63.0 26 0.00
2020/04/08 17:00 458 7.8 352 63.4 29 0.00